Time;durP1;ratioP1;P1;durP2;ratioP2;P2;SDS_P1;SDS_P2;PMS_P1;PMS_P2;Temp;Humidity;BMP_temperature;BMP_pressure;BME280_temperature;BME280_humidity;BME280_pressure;Samples;Min_cycle;Max_cycle;Signal;HPM_P1;HPM_P2
2021/06/03 00:00:57;;;;;;;31.48;25.25;;;25.80;92.20;;;;;;5059529;28;20032;-82
2021/06/03 00:03:24;;;;;;;30.92;25.02;;;25.80;92.10;;;;;;5076035;28;20025;-83
2021/06/03 00:05:56;;;;;;;28.58;25.40;;;25.80;92.20;;;;;;5042637;28;20039;-83
2021/06/03 00:08:24;;;;;;;31.23;25.77;;;25.70;92.10;;;;;;5075831;28;20055;-82
2021/06/03 00:10:59;;;;;;;30.67;25.50;;;25.80;92.20;;;;;;5075435;28;20044;-83
2021/06/03 00:13:27;;;;;;;35.42;27.83;;;25.80;92.20;;;;;;5076035;28;20031;-82
2021/06/03 00:15:53;;;;;;;31.80;26.83;;;25.80;92.20;;;;;;5093784;28;20036;-83
2021/06/03 00:18:20;;;;;;;33.30;27.77;;;25.80;92.20;;;;;;5094092;28;20035;-82
2021/06/03 00:20:46;;;;;;;35.28;27.63;;;25.70;92.20;;;;;;5093830;28;20027;-83
2021/06/03 00:23:12;;;;;;;34.17;29.13;;;25.80;92.20;;;;;;5094081;28;20414;-82
2021/06/03 00:25:37;;;;;;;34.75;28.63;;;25.80;92.20;;;;;;5093578;28;20028;-82
2021/06/03 00:28:04;;;;;;;34.78;29.20;;;25.80;92.20;;;;;;5058624;28;20035;-82
2021/06/03 00:30:31;;;;;;;35.03;29.50;;;25.80;92.20;;;;;;5093759;28;20020;-82
2021/06/03 00:32:56;;;;;;;35.92;29.33;;;25.80;92.20;;;;;;5075464;28;20035;-82
2021/06/03 00:35:22;;;;;;;35.50;29.48;;;25.80;92.20;;;;;;5093301;28;20481;-82
2021/06/03 00:37:49;;;;;;;36.40;30.10;;;25.80;92.30;;;;;;5075598;28;20331;-83
2021/06/03 00:40:16;;;;;;;36.63;29.98;;;25.80;92.30;;;;;;5075582;28;20024;-82
2021/06/03 00:42:42;;;;;;;33.58;29.00;;;25.80;92.30;;;;;;5058550;28;20401;-82
2021/06/03 00:45:17;;;;;;;37.13;29.40;;;25.80;92.30;;;;;;5074965;28;20038;-82
2021/06/03 00:47:44;;;;;;;34.88;29.80;;;25.80;92.30;;;;;;5075583;28;20028;-82
2021/06/03 00:50:12;;;;;;;34.63;29.23;;;25.70;92.30;;;;;;5058504;28;20032;-82
2021/06/03 00:52:38;;;;;;;35.88;29.83;;;25.70;92.30;;;;;;5075541;28;20035;-82
2021/06/03 00:55:05;;;;;;;35.10;29.38;;;25.80;92.30;;;;;;5058279;28;20037;-82
2021/06/03 00:57:30;;;;;;;34.40;29.25;;;25.80;92.30;;;;;;5093386;28;20490;-81
2021/06/03 00:59:56;;;;;;;32.50;28.88;;;25.70;92.30;;;;;;5074222;28;20055;-82
2021/06/03 01:02:22;;;;;;;34.60;29.17;;;25.70;92.30;;;;;;5058590;28;20119;-82
2021/06/03 01:04:47;;;;;;;36.08;28.92;;;25.70;92.40;;;;;;5058997;28;20040;-82
2021/06/03 01:07:13;;;;;;;33.83;28.83;;;25.70;92.40;;;;;;5057844;28;20521;-82
2021/06/03 01:09:59;;;;;;;34.10;28.13;;;25.70;92.40;;;;;;5041887;28;20139;-82
2021/06/03 01:12:32;;;;;;;34.70;29.05;;;25.70;92.40;;;;;;5075108;28;20028;-82
2021/06/03 01:15:02;;;;;;;32.72;27.60;;;25.70;92.50;;;;;;5074495;28;20066;-82
2021/06/03 01:17:28;;;;;;;32.85;26.85;;;25.70;92.50;;;;;;5074900;28;20119;-81
2021/06/03 01:19:55;;;;;;;32.75;27.42;;;25.70;92.50;;;;;;5074709;28;20065;-84
2021/06/03 01:22:39;;;;;;;33.63;27.50;;;25.70;92.50;;;;;;5074996;28;20438;-82
2021/06/03 01:25:09;;;;;;;32.55;27.80;;;25.70;92.50;;;;;;5092769;28;20031;-83
2021/06/03 01:27:35;;;;;;;31.15;26.88;;;25.70;92.50;;;;;;5058668;28;20130;-82
2021/06/03 01:30:07;;;;;;;28.85;25.73;;;25.70;92.50;;;;;;5092627;28;20035;-83
2021/06/03 01:32:35;;;;;;;33.42;27.48;;;25.70;92.50;;;;;;5074742;28;20032;-82
2021/06/03 01:35:01;;;;;;;32.38;27.38;;;25.70;92.60;;;;;;5074333;28;20032;-83
2021/06/03 01:37:27;;;;;;;31.55;25.95;;;25.70;92.60;;;;;;5093267;28;20051;-83
2021/06/03 01:39:54;;;;;;;30.85;26.08;;;25.70;92.60;;;;;;5058252;28;20055;-82
2021/06/03 01:42:20;;;;;;;32.38;26.42;;;25.70;92.60;;;;;;5092432;28;20020;-82
2021/06/03 01:44:47;;;;;;;30.60;25.15;;;25.70;92.60;;;;;;5074558;28;20093;-82
2021/06/03 01:47:13;;;;;;;30.63;26.13;;;25.70;92.70;;;;;;5074190;28;20105;-83
2021/06/03 01:49:41;;;;;;;29.75;24.95;;;25.70;92.70;;;;;;5075382;28;20028;-82
2021/06/03 01:52:08;;;;;;;27.05;23.98;;;25.70;92.60;;;;;;5057678;28;20097;-82
2021/06/03 01:54:34;;;;;;;28.88;25.17;;;25.70;92.70;;;;;;5057719;28;20040;-83
2021/06/03 01:57:00;;;;;;;29.23;24.38;;;25.70;92.60;;;;;;5074144;28;20020;-83
2021/06/03 01:59:26;;;;;;;28.10;24.02;;;25.70;92.60;;;;;;5074414;28;20024;-82
2021/06/03 02:01:52;;;;;;;28.73;23.65;;;25.70;92.70;;;;;;5074814;28;20032;-82
2021/06/03 02:04:18;;;;;;;28.15;23.75;;;25.70;92.70;;;;;;5074056;28;20491;-82
2021/06/03 02:06:44;;;;;;;26.48;23.33;;;25.70;92.70;;;;;;5057887;28;20030;-82
2021/06/03 02:09:12;;;;;;;26.27;23.02;;;25.70;92.70;;;;;;5053774;28;20455;-82
2021/06/03 02:11:46;;;;;;;24.92;22.02;;;25.70;92.70;;;;;;5074433;28;20036;-82
2021/06/03 02:14:17;;;;;;;23.88;20.90;;;25.70;92.70;;;;;;5075598;28;20098;-82
2021/06/03 02:16:46;;;;;;;27.05;23.25;;;25.70;92.70;;;;;;5074682;28;20032;-82
2021/06/03 02:19:22;;;;;;;24.92;20.98;;;25.70;92.70;;;;;;5074402;28;20024;-82
2021/06/03 02:21:49;;;;;;;24.40;20.38;;;25.70;92.70;;;;;;5075906;28;20474;-82
2021/06/03 02:24:16;;;;;;;23.98;20.02;;;25.70;92.70;;;;;;5057711;28;20032;-82
2021/06/03 02:26:43;;;;;;;22.50;20.10;;;25.70;92.70;;;;;;5074238;28;20032;-82
2021/06/03 02:29:10;;;;;;;23.23;19.55;;;25.70;92.80;;;;;;5075221;28;20037;-82
2021/06/03 02:31:36;;;;;;;22.25;19.55;;;25.70;92.70;;;;;;5075411;28;20029;-81
2021/06/03 02:34:03;;;;;;;22.58;18.85;;;25.60;92.70;;;;;;5073906;28;20039;-82
2021/06/03 02:36:29;;;;;;;23.50;20.10;;;25.70;92.70;;;;;;5057821;28;20036;-82
2021/06/03 02:38:55;;;;;;;21.88;18.13;;;25.70;92.70;;;;;;5075341;28;20390;-82
2021/06/03 02:41:21;;;;;;;23.08;18.80;;;25.60;92.70;;;;;;5073803;28;20126;-81
2021/06/03 02:43:48;;;;;;;19.77;17.60;;;25.70;92.70;;;;;;5075354;28;20090;-82
2021/06/03 02:46:15;;;;;;;19.90;17.75;;;25.60;92.70;;;;;;5073727;28;20032;-82
2021/06/03 02:48:41;;;;;;;20.33;17.80;;;25.70;92.70;;;;;;5057701;28;20082;-81
2021/06/03 02:51:07;;;;;;;22.30;17.33;;;25.70;92.70;;;;;;5057281;28;20029;-82
2021/06/03 02:53:32;;;;;;;22.25;18.45;;;25.60;92.70;;;;;;5074397;28;20104;-82
2021/06/03 02:55:59;;;;;;;20.50;17.48;;;25.70;92.80;;;;;;5057239;28;20036;-82
2021/06/03 02:58:25;;;;;;;21.63;17.77;;;25.60;92.80;;;;;;5074538;28;20050;-82
2021/06/03 03:00:51;;;;;;;20.05;17.73;;;25.60;92.80;;;;;;5075227;28;20047;-82
2021/06/03 03:03:18;;;;;;;19.63;17.15;;;25.60;92.80;;;;;;5074485;28;20463;-81
2021/06/03 03:05:44;;;;;;;19.60;17.10;;;25.60;92.80;;;;;;5073800;28;20044;-81
2021/06/03 03:08:10;;;;;;;18.27;15.57;;;25.70;92.80;;;;;;5073165;28;20044;-81
2021/06/03 03:10:42;;;;;;;19.23;16.05;;;25.60;93.00;;;;;;5056865;28;20055;-81
2021/06/03 03:13:09;;;;;;;18.40;15.88;;;25.60;92.70;;;;;;5074413;28;20390;-82
2021/06/03 03:15:36;;;;;;;17.77;15.73;;;25.60;92.70;;;;;;5073315;28;20041;-82
2021/06/03 03:18:02;;;;;;;19.30;16.48;;;25.60;92.70;;;;;;5073596;28;20056;-81
2021/06/03 03:20:29;;;;;;;18.52;15.95;;;25.60;92.70;;;;;;5056434;28;20082;-81
2021/06/03 03:22:56;;;;;;;17.58;15.65;;;25.60;92.90;;;;;;5072507;28;20485;-82
2021/06/03 03:25:24;;;;;;;16.50;14.73;;;25.60;92.70;;;;;;5073055;28;20466;-82
2021/06/03 03:27:50;;;;;;;16.17;14.48;;;25.60;92.70;;;;;;5073010;28;20031;-82
2021/06/03 03:30:18;;;;;;;16.90;14.18;;;25.60;92.70;;;;;;5072808;28;20029;-82
2021/06/03 03:32:44;;;;;;;17.52;14.35;;;25.60;92.70;;;;;;5072983;28;20115;-82
2021/06/03 03:35:10;;;;;;;16.15;14.23;;;25.60;92.70;;;;;;5072844;28;20132;-82
2021/06/03 03:37:37;;;;;;;16.77;14.75;;;25.60;92.70;;;;;;5073162;28;20063;-82
2021/06/03 03:40:06;;;;;;;15.63;13.73;;;25.60;92.70;;;;;;5073084;28;20036;-82
2021/06/03 03:42:31;;;;;;;16.60;14.13;;;25.60;92.70;;;;;;5074481;28;20025;-82
2021/06/03 03:44:57;;;;;;;15.13;13.55;;;25.60;92.70;;;;;;5056393;28;20371;-82
2021/06/03 03:47:23;;;;;;;16.08;13.63;;;25.60;92.70;;;;;;5055883;28;20033;-82
2021/06/03 03:49:48;;;;;;;15.10;13.50;;;25.60;92.70;;;;;;5039675;28;20029;-82
2021/06/03 03:52:14;;;;;;;14.50;13.00;;;25.60;92.70;;;;;;5055887;28;20082;-82
2021/06/03 03:54:39;;;;;;;15.43;13.25;;;25.60;92.70;;;;;;5056088;28;20131;-82
2021/06/03 03:57:06;;;;;;;15.65;13.05;;;25.60;92.70;;;;;;5074322;28;20030;-82
2021/06/03 03:59:32;;;;;;;14.75;13.13;;;25.60;92.70;;;;;;5072659;28;20036;-82
2021/06/03 04:01:57;;;;;;;15.75;13.00;;;25.60;92.70;;;;;;5072798;28;20028;-82
2021/06/03 04:04:24;;;;;;;14.05;12.52;;;25.60;92.70;;;;;;5055357;28;20554;-82
2021/06/03 04:06:50;;;;;;;14.35;12.73;;;25.60;92.70;;;;;;5039207;28;20028;-82
2021/06/03 04:09:16;;;;;;;13.38;11.73;;;25.60;92.70;;;;;;5055062;28;20057;-82
2021/06/03 04:11:42;;;;;;;13.88;12.38;;;25.60;92.70;;;;;;5073736;28;20052;-82
2021/06/03 04:14:09;;;;;;;13.95;12.27;;;25.60;92.80;;;;;;5055593;28;20037;-85
2021/06/03 04:16:35;;;;;;;12.80;11.45;;;25.60;92.80;;;;;;5055841;28;20032;-82
2021/06/03 04:19:01;;;;;;;13.18;11.40;;;25.60;92.80;;;;;;5072314;28;20029;-82
2021/06/03 04:21:26;;;;;;;12.25;10.93;;;25.60;92.80;;;;;;5071879;28;20098;-82
2021/06/03 04:23:52;;;;;;;13.00;11.07;;;25.60;92.80;;;;;;5073124;28;20029;-82
2021/06/03 04:26:18;;;;;;;13.20;11.75;;;25.50;92.80;;;;;;5071774;28;20031;-82
2021/06/03 04:28:44;;;;;;;11.93;10.65;;;25.60;92.80;;;;;;5073395;28;20493;-82
2021/06/03 04:31:10;;;;;;;12.70;11.05;;;25.60;92.80;;;;;;5055427;28;20035;-83
2021/06/03 04:33:36;;;;;;;11.35;10.15;;;25.60;92.90;;;;;;5073265;28;20415;-82
2021/06/03 04:36:02;;;;;;;11.75;10.30;;;25.60;92.90;;;;;;5073287;28;20040;-82
2021/06/03 04:38:28;;;;;;;12.88;10.90;;;25.60;92.90;;;;;;5072837;28;20025;-82
2021/06/03 04:40:54;;;;;;;11.13;9.82;;;25.60;92.90;;;;;;5072151;28;20613;-81
2021/06/03 04:43:20;;;;;;;10.93;9.70;;;25.60;92.90;;;;;;5071475;28;20032;-82
2021/06/03 04:45:47;;;;;;;11.52;9.85;;;25.60;92.90;;;;;;5073168;28;20090;-82
2021/06/03 04:48:13;;;;;;;10.63;9.52;;;25.60;93.00;;;;;;5071821;28;20024;-82
2021/06/03 04:50:40;;;;;;;10.77;9.30;;;25.60;93.00;;;;;;5073222;28;20493;-82
2021/06/03 04:53:06;;;;;;;10.95;9.38;;;25.60;93.00;;;;;;5071946;28;20097;-82
2021/06/03 04:55:33;;;;;;;10.93;9.73;;;25.60;93.00;;;;;;5071653;28;20041;-82
2021/06/03 04:58:00;;;;;;;10.23;9.05;;;25.60;93.00;;;;;;5072900;28;20099;-81
2021/06/03 05:00:29;;;;;;;9.48;8.52;;;25.60;93.00;;;;;;5054314;28;20033;-82
2021/06/03 05:02:56;;;;;;;9.52;8.52;;;25.50;92.90;;;;;;5072328;28;20028;-82
2021/06/03 05:05:22;;;;;;;9.63;8.63;;;25.60;93.00;;;;;;5071497;28;20063;-82
2021/06/03 05:07:48;;;;;;;9.73;8.23;;;25.60;93.00;;;;;;5071703;28;20150;-82
2021/06/03 05:10:16;;;;;;;9.10;8.05;;;25.50;92.90;;;;;;5071803;28;20524;-83
2021/06/03 05:12:42;;;;;;;8.95;7.68;;;25.60;93.00;;;;;;5072126;28;20060;-82
2021/06/03 05:15:09;;;;;;;8.32;7.53;;;25.60;93.20;;;;;;5071371;28;20068;-82
2021/06/03 05:17:36;;;;;;;7.82;7.07;;;25.60;93.00;;;;;;5072581;28;20055;-82
2021/06/03 05:20:06;;;;;;;8.13;7.30;;;25.60;93.00;;;;;;5055058;28;20033;-82
2021/06/03 05:22:31;;;;;;;7.53;6.82;;;25.50;93.00;;;;;;5071385;28;20035;-83
2021/06/03 05:24:57;;;;;;;7.40;6.57;;;25.60;92.90;;;;;;5071722;28;20029;-82
2021/06/03 05:27:23;;;;;;;7.80;7.00;;;25.60;92.90;;;;;;5071536;28;20463;-82
2021/06/03 05:29:48;;;;;;;6.95;6.25;;;25.60;92.90;;;;;;5071651;28;20060;-83
2021/06/03 05:32:15;;;;;;;6.90;6.20;;;25.60;93.10;;;;;;5055131;28;20505;-83
2021/06/03 05:34:41;;;;;;;6.97;6.15;;;25.60;92.90;;;;;;5072886;28;20127;-82
2021/06/03 05:37:06;;;;;;;6.97;6.22;;;25.60;92.90;;;;;;5071296;28;20104;-83
2021/06/03 05:39:32;;;;;;;6.68;5.97;;;25.60;92.80;;;;;;5071300;28;20032;-83
2021/06/03 05:41:58;;;;;;;6.97;6.28;;;25.60;92.80;;;;;;5071744;28;20522;-82
2021/06/03 05:44:24;;;;;;;5.82;5.22;;;25.60;92.80;;;;;;5071019;28;20394;-83
2021/06/03 05:46:50;;;;;;;6.32;5.53;;;25.60;92.80;;;;;;5076803;28;20032;-82
2021/06/03 05:49:16;;;;;;;6.32;5.68;;;25.60;92.80;;;;;;5076810;28;20519;-83
2021/06/03 05:51:42;;;;;;;5.78;5.18;;;25.60;92.80;;;;;;5076173;28;20035;-83
2021/06/03 05:54:10;;;;;;;5.93;5.15;;;25.60;92.80;;;;;;5076404;28;20032;-83
2021/06/03 05:56:36;;;;;;;6.13;5.53;;;25.60;92.80;;;;;;5058581;28;20055;-83
2021/06/03 05:59:02;;;;;;;5.45;4.95;;;25.60;92.80;;;;;;5076595;28;20035;-82
2021/06/03 06:01:29;;;;;;;5.18;4.68;;;25.60;92.80;;;;;;5058499;28;20044;-82
2021/06/03 06:06:24;;;;;;;5.82;4.72;;;25.60;92.80;;;;;;5058834;28;20032;-83
2021/06/03 06:08:52;;;;;;;5.78;5.18;;;25.60;92.80;;;;;;5058372;28;20057;-82
2021/06/03 06:11:18;;;;;;;6.18;5.57;;;25.60;92.80;;;;;;5075107;28;20102;-82
2021/06/03 06:13:44;;;;;;;4.93;4.43;;;25.60;92.80;;;;;;5076035;28;20120;-82
2021/06/03 06:16:10;;;;;;;6.18;5.00;;;25.60;92.80;;;;;;5075103;28;20409;-82
2021/06/03 06:18:37;;;;;;;4.82;4.40;;;25.60;92.80;;;;;;5074771;28;20039;-82
2021/06/03 06:21:04;;;;;;;4.95;4.22;;;25.60;92.80;;;;;;5058296;28;20390;-82
2021/06/03 06:23:32;;;;;;;4.40;4.00;;;25.60;92.70;;;;;;5074577;28;20028;-82
2021/06/03 06:25:57;;;;;;;5.10;4.60;;;25.60;92.80;;;;;;5058524;28;20506;-82
2021/06/03 06:28:23;;;;;;;4.75;4.30;;;25.60;92.70;;;;;;5074545;28;20063;-83
2021/06/03 06:30:49;;;;;;;4.75;4.20;;;25.60;92.80;;;;;;5074597;28;20032;-82
2021/06/03 06:33:14;;;;;;;4.78;3.80;;;25.70;92.80;;;;;;5075937;28;20028;-82
2021/06/03 06:35:42;;;;;;;5.63;4.72;;;25.60;92.70;;;;;;5074433;28;20032;-83
2021/06/03 06:38:07;;;;;;;4.78;4.28;;;25.60;92.70;;;;;;5058376;28;20025;-83
2021/06/03 06:40:35;;;;;;;4.75;4.25;;;25.70;92.80;;;;;;5074537;28;20375;-84
2021/06/03 06:43:00;;;;;;;5.50;4.78;;;25.70;92.80;;;;;;5041602;28;20028;-83
2021/06/03 06:45:28;;;;;;;4.60;4.15;;;25.60;92.90;;;;;;5074620;28;20052;-84
2021/06/03 06:47:54;;;;;;;4.85;4.05;;;25.70;93.00;;;;;;5057974;28;20056;-83
2021/06/03 06:50:22;;;;;;;4.47;4.07;;;25.70;93.00;;;;;;5075773;28;20036;-84
2021/06/03 06:52:48;;;;;;;5.25;4.72;;;25.70;93.10;;;;;;5057646;28;20056;-82
2021/06/03 06:55:13;;;;;;;5.00;4.35;;;25.70;93.10;;;;;;5074351;28;20076;-83
2021/06/03 06:57:39;;;;;;;4.75;4.30;;;25.70;93.10;;;;;;5072741;28;20029;-83
2021/06/03 07:00:08;;;;;;;4.35;3.95;;;25.70;93.10;;;;;;5075672;28;20463;-83
2021/06/03 07:02:33;;;;;;;4.43;4.03;;;25.70;93.30;;;;;;5074625;28;20500;-82
2021/06/03 07:04:59;;;;;;;4.05;3.65;;;25.70;93.10;;;;;;5074156;28;20036;-82
2021/06/03 07:07:25;;;;;;;4.20;3.80;;;25.70;93.10;;;;;;5073913;28;20037;-86
2021/06/03 07:09:50;;;;;;;3.80;3.50;;;25.70;93.10;;;;;;5093826;28;20048;-82
2021/06/03 07:12:16;;;;;;;4.00;3.60;;;25.70;93.10;;;;;;5077508;28;20035;-82
2021/06/03 07:14:42;;;;;;;3.67;3.35;;;25.70;93.10;;;;;;5076960;28;20036;-83
2021/06/03 07:17:07;;;;;;;3.28;2.90;;;25.70;93.10;;;;;;5077269;28;20466;-82
2021/06/03 07:19:33;;;;;;;3.17;2.88;;;25.80;93.10;;;;;;5077145;28;20081;-83
2021/06/03 07:21:59;;;;;;;3.35;3.05;;;25.70;93.10;;;;;;5095030;28;20431;-82
2021/06/03 07:24:25;;;;;;;2.78;2.58;;;25.80;93.20;;;;;;5094827;28;20028;-82
2021/06/03 07:26:50;;;;;;;2.95;2.65;;;25.80;93.20;;;;;;5094598;28;20038;-82
2021/06/03 07:29:16;;;;;;;2.72;2.40;;;25.80;93.20;;;;;;5076732;28;20028;-83
2021/06/03 07:31:42;;;;;;;3.28;2.97;;;25.80;93.20;;;;;;5058970;28;20074;-82
2021/06/03 07:34:07;;;;;;;2.70;2.45;;;25.80;93.20;;;;;;5077061;28;20028;-82
2021/06/03 07:36:34;;;;;;;1.92;1.83;;;25.80;93.20;;;;;;5095014;28;20089;-82
2021/06/03 07:39:02;;;;;;;2.20;1.80;;;25.90;93.40;;;;;;5076613;28;20118;-82
2021/06/03 07:41:28;;;;;;;2.20;2.00;;;25.90;93.20;;;;;;5094543;28;20035;-84
2021/06/03 07:43:54;;;;;;;2.22;2.03;;;25.80;93.20;;;;;;5055321;28;20499;-82
2021/06/03 07:46:20;;;;;;;2.20;2.00;;;25.90;93.40;;;;;;5056778;28;20082;-82
2021/06/03 07:48:45;;;;;;;2.35;2.15;;;25.90;93.00;;;;;;5064328;28;20016;-83
2021/06/03 07:51:11;;;;;;;2.20;2.00;;;25.80;93.00;;;;;;5077503;28;20391;-82
2021/06/03 07:53:37;;;;;;;2.40;2.20;;;25.90;93.10;;;;;;5074203;28;20443;-83
2021/06/03 07:56:04;;;;;;;3.28;2.70;;;25.90;93.10;;;;;;5073998;28;20466;-82
2021/06/03 07:58:30;;;;;;;3.33;3.00;;;25.90;93.10;;;;;;5056605;28;20142;-83
2021/06/03 08:00:55;;;;;;;2.85;2.55;;;25.90;93.20;;;;;;5056030;28;20012;-82
2021/06/03 08:03:21;;;;;;;2.85;2.60;;;25.90;93.30;;;;;;5056406;28;20119;-82
2021/06/03 08:05:47;;;;;;;3.65;3.25;;;25.90;93.30;;;;;;5055913;28;20044;-83
2021/06/03 08:08:12;;;;;;;3.67;3.33;;;25.90;93.50;;;;;;5073584;28;20060;-82
2021/06/03 08:10:40;;;;;;;3.45;2.80;;;25.90;93.60;;;;;;5038665;28;20029;-83
2021/06/03 08:13:08;;;;;;;4.93;3.17;;;25.90;93.80;;;;;;5072963;28;20095;-82
2021/06/03 08:15:35;;;;;;;3.40;3.03;;;26.00;93.90;;;;;;5055946;28;20036;-83
2021/06/03 08:18:02;;;;;;;3.10;2.80;;;26.00;94.00;;;;;;5073768;28;20025;-82
2021/06/03 08:20:40;;;;;;;3.40;3.10;;;26.00;94.10;;;;;;5056132;28;20025;-82
2021/06/03 08:23:08;;;;;;;3.53;2.83;;;26.00;94.00;;;;;;5074254;28;20024;-82
2021/06/03 08:25:35;;;;;;;2.88;2.35;;;26.00;94.00;;;;;;5055512;28;20036;-83
2021/06/03 08:28:00;;;;;;;3.03;2.50;;;26.00;94.00;;;;;;5039374;28;20054;-82
2021/06/03 08:30:27;;;;;;;2.85;2.50;;;26.00;93.90;;;;;;5073712;28;20021;-82
2021/06/03 08:32:53;;;;;;;2.55;2.35;;;26.00;93.90;;;;;;5039214;28;20029;-82
2021/06/03 08:35:21;;;;;;;2.33;2.13;;;26.00;93.90;;;;;;5039167;28;20106;-82
2021/06/03 08:37:50;;;;;;;2.28;2.08;;;26.00;93.80;;;;;;5055475;28;20089;-82
2021/06/03 08:40:20;;;;;;;2.35;2.15;;;26.00;93.80;;;;;;5073348;28;20386;-82
2021/06/03 08:42:48;;;;;;;2.20;2.03;;;26.00;93.70;;;;;;5073533;28;20077;-82
2021/06/03 08:45:15;;;;;;;2.25;2.05;;;26.00;93.80;;;;;;5055338;28;20497;-82
2021/06/03 08:47:40;;;;;;;2.13;1.92;;;26.00;93.70;;;;;;5055435;28;20117;-82
2021/06/03 08:50:07;;;;;;;2.30;2.10;;;26.10;93.80;;;;;;5022362;28;20122;-82
2021/06/03 08:52:33;;;;;;;2.30;2.10;;;26.00;93.70;;;;;;5055435;28;20039;-82
2021/06/03 08:55:01;;;;;;;2.10;1.90;;;26.00;93.70;;;;;;5038338;28;20043;-82
2021/06/03 08:57:27;;;;;;;2.25;2.05;;;26.00;93.70;;;;;;5039576;28;20031;-82
2021/06/03 08:59:53;;;;;;;2.03;1.90;;;26.10;93.80;;;;;;5038438;28;20028;-82
2021/06/03 09:02:19;;;;;;;1.98;1.83;;;26.10;93.70;;;;;;5073301;28;20028;-83
2021/06/03 09:04:45;;;;;;;2.30;2.10;;;26.10;93.70;;;;;;5022033;28;20047;-82
2021/06/03 09:07:35;;;;;;;2.17;1.98;;;26.10;93.70;;;;;;5054626;28;20425;-83
2021/06/03 09:10:27;;;;;;;2.25;1.92;;;26.10;93.70;;;;;;5054474;28;20060;-82
2021/06/03 09:13:19;;;;;;;1.80;1.70;;;26.10;93.70;;;;;;5054923;28;20056;-83
2021/06/03 09:15:51;;;;;;;1.95;1.80;;;26.10;93.70;;;;;;5072784;28;20033;-83
2021/06/03 09:18:25;;;;;;;1.30;1.20;;;26.00;93.70;;;;;;5055137;28;20358;-82
2021/06/03 09:20:50;;;;;;;2.20;1.57;;;26.00;93.70;;;;;;5038375;28;20064;-83
2021/06/03 09:23:32;;;;;;;1.70;1.60;;;26.10;93.80;;;;;;5055194;28;20037;-82
2021/06/03 09:26:04;;;;;;;3.00;1.65;;;26.10;93.70;;;;;;5054610;28;20033;-82
2021/06/03 09:28:38;;;;;;;1.73;1.50;;;26.10;93.80;;;;;;5073163;28;20029;-82
2021/06/03 09:31:17;;;;;;;1.60;1.50;;;26.10;93.70;;;;;;5054768;28;20031;-82
2021/06/03 09:33:50;;;;;;;1.77;1.42;;;26.10;93.70;;;;;;5054743;28;20388;-83
2021/06/03 09:36:38;;;;;;;1.50;1.40;;;26.10;93.70;;;;;;5072560;28;20033;-82
2021/06/03 09:39:12;;;;;;;1.60;1.50;;;26.10;93.80;;;;;;5072739;28;20113;-82
2021/06/03 09:41:49;;;;;;;1.17;1.08;;;26.10;93.70;;;;;;5072763;28;20031;-83
2021/06/03 09:44:17;;;;;;;1.63;1.52;;;26.10;93.70;;;;;;5072885;28;20111;-82
2021/06/03 09:47:07;;;;;;;1.38;1.27;;;26.10;93.70;;;;;;5054624;28;20029;-83
2021/06/03 09:49:42;;;;;;;1.88;1.58;;;26.10;93.60;;;;;;5053724;28;20123;-81
2021/06/03 09:52:13;;;;;;;1.40;1.30;;;26.20;93.60;;;;;;5054672;28;20025;-82
2021/06/03 09:54:41;;;;;;;1.55;1.45;;;26.20;93.50;;;;;;5072383;28;20082;-81
2021/06/03 09:57:12;;;;;;;1.60;1.50;;;26.20;93.50;;;;;;5054383;28;20359;-82
2021/06/03 09:59:44;;;;;;;1.60;1.50;;;26.20;93.50;;;;;;5072746;28;20024;-82
2021/06/03 10:02:21;;;;;;;1.52;1.42;;;26.20;93.40;;;;;;5072732;28;20020;-82
2021/06/03 10:04:54;;;;;;;1.67;1.50;;;26.20;93.40;;;;;;5054444;28;20386;-83
2021/06/03 10:07:25;;;;;;;1.90;1.58;;;26.20;93.40;;;;;;5054702;28;20111;-81
2021/06/03 10:09:55;;;;;;;2.00;1.67;;;26.20;93.40;;;;;;5072292;28;20131;-82
2021/06/03 10:12:28;;;;;;;2.05;1.80;;;26.20;93.50;;;;;;5072751;28;20032;-82
2021/06/03 10:15:06;;;;;;;2.72;1.90;;;26.30;93.60;;;;;;5073702;28;20112;-82
2021/06/03 10:17:33;;;;;;;2.13;1.92;;;26.30;93.60;;;;;;5054386;28;20025;-80
2021/06/03 10:20:07;;;;;;;1.88;1.77;;;26.30;93.60;;;;;;5072163;28;20021;-81
2021/06/03 10:22:34;;;;;;;;;;;26.30;93.60;;;;;;5073079;28;20025;-81
2021/06/03 10:25:06;;;;;;;1.70;1.60;;;26.30;93.60;;;;;;5051960;28;19943;-82
2021/06/03 10:27:43;;;;;;;1.60;1.50;;;26.30;93.70;;;;;;5054025;28;20060;-81
2021/06/03 10:30:13;;;;;;;1.35;1.25;;;26.30;93.70;;;;;;5054295;28;20035;-81
2021/06/03 10:32:39;;;;;;;1.60;1.50;;;26.30;93.70;;;;;;5075569;28;20021;-81
2021/06/03 10:35:09;;;;;;;1.52;1.42;;;26.30;93.70;;;;;;5040736;28;20414;-81
2021/06/03 10:37:37;;;;;;;1.40;1.30;;;26.30;93.60;;;;;;5075980;28;20024;-82
2021/06/03 10:40:05;;;;;;;1.38;1.27;;;26.30;93.60;;;;;;5057074;28;20101;-82
2021/06/03 10:42:31;;;;;;;1.45;1.35;;;26.30;93.60;;;;;;5075750;28;20029;-82
2021/06/03 10:44:57;;;;;;;1.38;1.27;;;26.30;93.60;;;;;;5041207;28;20537;-83
2021/06/03 10:47:24;;;;;;;1.60;1.50;;;26.30;93.60;;;;;;5057871;28;20032;-82
2021/06/03 10:49:51;;;;;;;1.30;1.20;;;26.30;93.60;;;;;;5024169;28;20024;-83
2021/06/03 10:52:17;;;;;;;1.55;1.45;;;26.30;93.60;;;;;;5041040;28;20046;-82
2021/06/03 10:54:52;;;;;;;1.27;1.17;;;26.30;93.60;;;;;;5075486;28;20029;-82
2021/06/03 10:57:22;;;;;;;1.25;1.15;;;26.30;93.60;;;;;;5057397;28;20032;-82
2021/06/03 10:59:48;;;;;;;1.38;1.27;;;26.30;93.60;;;;;;5057377;28;20031;-82
2021/06/03 11:02:15;;;;;;;1.55;1.45;;;26.30;93.60;;;;;;5040623;28;20123;-82
2021/06/03 11:04:42;;;;;;;1.60;1.50;;;26.30;93.50;;;;;;5075106;28;20093;-82
2021/06/03 11:07:09;;;;;;;1.40;1.30;;;26.30;93.50;;;;;;5040734;28;20102;-83
2021/06/03 11:09:39;;;;;;;1.55;1.45;;;26.30;93.50;;;;;;5075432;28;20045;-83
2021/06/03 11:12:06;;;;;;;1.52;1.42;;;26.30;93.50;;;;;;5056753;28;20040;-83
2021/06/03 11:14:32;;;;;;;1.58;1.48;;;26.30;93.50;;;;;;5040721;28;20032;-82
2021/06/03 11:16:59;;;;;;;1.63;1.52;;;26.30;93.50;;;;;;5057308;28;20520;-83
2021/06/03 11:19:29;;;;;;;1.60;1.45;;;26.30;93.50;;;;;;5075106;28;20024;-82
2021/06/03 11:21:56;;;;;;;1.50;1.40;;;26.30;93.50;;;;;;5057077;28;20437;-83
2021/06/03 11:24:25;;;;;;;1.55;1.45;;;26.30;93.50;;;;;;5056931;28;20382;-82
2021/06/03 11:26:56;;;;;;;1.40;1.30;;;26.30;93.50;;;;;;5057086;28;20020;-82
2021/06/03 11:29:36;;;;;;;1.60;1.50;;;26.30;93.50;;;;;;5057080;28;20467;-82
2021/06/03 11:32:02;;;;;;;1.50;1.40;;;26.30;93.40;;;;;;5074671;28;20056;-83
2021/06/03 11:34:44;;;;;;;1.60;1.50;;;26.30;93.40;;;;;;5074687;28;20036;-82
2021/06/03 11:37:20;;;;;;;1.48;1.38;;;26.30;93.40;;;;;;5074710;28;20028;-82
2021/06/03 11:39:58;;;;;;;2.10;1.85;;;26.30;93.40;;;;;;5074429;28;20092;-82
2021/06/03 11:42:28;;;;;;;1.90;1.80;;;26.30;93.40;;;;;;5056602;28;20028;-82
2021/06/03 11:45:03;;;;;;;1.90;1.67;;;26.30;93.40;;;;;;5074516;28;20063;-85
2021/06/03 11:47:52;;;;;;;1.60;1.50;;;26.30;93.40;;;;;;5056536;28;20479;-81
2021/06/03 11:50:18;;;;;;;1.60;1.50;;;26.40;93.40;;;;;;5007937;28;20441;-81
2021/06/03 11:52:52;;;;;;;1.77;1.67;;;26.40;93.40;;;;;;5056377;28;20081;-81
2021/06/03 11:55:29;;;;;;;1.70;1.60;;;26.40;93.40;;;;;;5055921;28;20044;-81
2021/06/03 11:58:18;;;;;;;1.70;1.60;;;26.40;93.40;;;;;;5074307;28;20171;-81
2021/06/03 12:00:52;;;;;;;1.80;1.60;;;26.40;93.40;;;;;;5008547;28;20143;-81
2021/06/03 12:03:36;;;;;;;1.70;1.60;;;26.40;93.40;;;;;;5055832;28;20025;-81
2021/06/03 12:06:03;;;;;;;1.85;1.75;;;26.40;93.40;;;;;;5073794;28;20025;-82
2021/06/03 12:08:37;;;;;;;2.10;1.90;;;26.40;93.50;;;;;;5073111;28;20135;-84
2021/06/03 12:11:05;;;;;;;2.47;2.27;;;26.40;93.60;;;;;;5072795;28;20044;-82
2021/06/03 12:13:31;;;;;;;2.10;1.83;;;26.40;93.70;;;;;;5073989;28;20025;-82
2021/06/03 12:15:57;;;;;;;2.00;1.75;;;26.40;94.00;;;;;;5055931;28;20385;-82
2021/06/03 12:18:23;;;;;;;2.38;2.17;;;26.40;94.20;;;;;;5039171;28;20119;-82
2021/06/03 12:20:49;;;;;;;2.10;1.90;;;26.40;94.30;;;;;;5039208;28;20123;-83
2021/06/03 12:23:15;;;;;;;1.85;1.70;;;26.40;94.40;;;;;;5053628;28;20071;-84
2021/06/03 12:25:43;;;;;;;1.67;1.58;;;26.40;94.50;;;;;;5072736;28;20052;-83
2021/06/03 12:28:11;;;;;;;1.75;1.65;;;26.40;94.60;;;;;;5054271;28;20040;-82
2021/06/03 12:30:42;;;;;;;2.10;1.88;;;26.40;94.70;;;;;;5055832;28;20111;-83
2021/06/03 12:33:26;;;;;;;2.58;1.80;;;26.40;94.70;;;;;;5073558;28;20025;-83
2021/06/03 12:36:01;;;;;;;2.22;2.03;;;26.40;94.90;;;;;;5055815;28;20089;-83
2021/06/03 12:38:36;;;;;;;1.80;1.70;;;26.40;94.90;;;;;;5073573;28;20047;-83
2021/06/03 12:41:20;;;;;;;1.95;1.80;;;26.40;94.90;;;;;;5055474;28;20021;-84
2021/06/03 12:43:50;;;;;;;2.17;1.98;;;26.40;95.00;;;;;;5073480;28;20094;-83
2021/06/03 12:46:16;;;;;;;2.25;2.05;;;26.40;95.00;;;;;;5055226;28;20033;-83
2021/06/03 12:48:44;;;;;;;2.08;1.88;;;26.40;95.10;;;;;;5055443;28;20073;-83